Terminal Aerodrome Forecast
Issued by NWS

Home | Current Version | Previous Version | Text Only | Print | Product List | Glossary On
Versions: 1 2 3 4 5 6 7 8 9 10 11 12 13 14 15 16 17
000
FTAK31 PAJN 040523
TAFASI
TAF
PASI 040523Z 0406/0506 24005KT P6SM VCSH SCT035 BKN050
      TEMPO 0406/0408 BKN025 OVC050
     FM040800 VRB06KT P6SM -SHRA OVC030
     FM041900 17006KT P6SM VCSH BKN040
     FM042300 21009KT P6SM VCSH SCT030 BKN040
     FM050300 18010KT P6SM -SHRA BKN025 OVC040=

USA.gov is the U.S. government's official web portal to all federal, state and local government web resources and services.